createdAt,value
2023-03-31T00:01:49.240Z,2.47
2023-03-31T00:06:47.840Z,2.33
2023-03-31T00:11:46.556Z,2.70
2023-03-31T00:16:46.008Z,2.83
2023-03-31T00:21:45.996Z,2.37
2023-03-31T00:26:45.280Z,2.67
2023-03-31T00:31:43.988Z,2.50
2023-03-31T00:36:46.284Z,3.00
2023-03-31T00:41:46.479Z,3.53
2023-03-31T00:46:52.677Z,2.77
2023-03-31T00:51:54.318Z,3.20
2023-03-31T00:56:58.781Z,3.63
2023-03-31T01:01:59.603Z,2.83
2023-03-31T01:07:03.846Z,4.27
2023-03-31T01:12:06.106Z,3.67
2023-03-31T01:17:05.669Z,4.40
2023-03-31T01:22:41.174Z,3.03
2023-03-31T01:27:59.510Z,3.80
2023-03-31T01:33:23.722Z,3.90
2023-03-31T01:39:02.789Z,3.20
2023-03-31T01:44:10.407Z,3.30
2023-03-31T01:49:20.260Z,3.60
2023-03-31T01:54:23.445Z,3.10
2023-03-31T01:59:29.487Z,3.87
2023-03-31T02:04:33.086Z,3.80
2023-03-31T02:09:37.132Z,4.47
2023-03-31T02:14:40.493Z,3.80
2023-03-31T02:19:42.151Z,4.77
2023-03-31T02:24:42.550Z,4.40
2023-03-31T02:29:42.678Z,4.20
2023-03-31T02:34:41.782Z,3.73
2023-03-31T02:39:43.090Z,4.20
2023-03-31T02:44:45.154Z,4.23
2023-03-31T02:49:47.388Z,4.60
2023-03-31T02:55:26.406Z,3.97
2023-03-31T03:00:39.345Z,3.83
2023-03-31T03:05:46.132Z,3.53
2023-03-31T03:11:11.523Z,4.40
2023-03-31T03:16:19.659Z,4.10
2023-03-31T03:21:17.792Z,4.40
2023-03-31T03:26:16.570Z,4.10
2023-03-31T03:31:17.134Z,4.07
2023-03-31T03:36:15.751Z,3.67
2023-03-31T03:41:14.245Z,5.30
2023-03-31T03:46:12.773Z,4.90
2023-03-31T03:51:12.636Z,4.43
2023-03-31T03:56:11.246Z,3.77
2023-03-31T04:01:09.771Z,3.83
2023-03-31T04:06:08.813Z,4.53
2023-03-31T04:11:16.660Z,4.13
2023-03-31T04:16:17.107Z,3.60
2023-03-31T04:21:23.309Z,3.93
2023-03-31T04:26:27.020Z,3.80
2023-03-31T04:31:26.803Z,4.20
2023-03-31T04:36:25.332Z,4.00
2023-03-31T04:41:27.945Z,4.63
2023-03-31T04:46:28.249Z,3.57
2023-03-31T04:51:26.498Z,3.90
2023-03-31T04:56:27.349Z,5.53
2023-03-31T05:01:25.955Z,3.50
2023-03-31T05:06:24.552Z,3.30
2023-03-31T05:11:23.318Z,2.87
2023-03-31T05:16:23.343Z,3.30
2023-03-31T05:21:22.899Z,2.80
2023-03-31T05:26:23.368Z,3.07
2023-03-31T05:31:23.396Z,3.10
2023-03-31T05:36:23.991Z,2.40
2023-03-31T05:41:22.604Z,3.10
2023-03-31T05:46:22.415Z,4.87
2023-03-31T05:51:20.993Z,2.40
2023-03-31T05:56:19.468Z,1.90
2023-03-31T06:01:20.662Z,2.60
2023-03-31T06:06:21.414Z,2.27
2023-03-31T06:11:23.829Z,2.50
2023-03-31T06:16:22.312Z,1.73
2023-03-31T06:21:22.251Z,1.83
2023-03-31T06:26:22.353Z,3.77
2023-03-31T06:31:23.166Z,1.97
2023-03-31T06:36:23.882Z,1.60
2023-03-31T06:41:22.710Z,2.77
2023-03-31T06:46:21.554Z,2.80
2023-03-31T06:51:20.071Z,2.63
2023-03-31T06:56:20.030Z,2.00
2023-03-31T07:01:18.554Z,1.90
2023-03-31T07:06:17.133Z,2.00
2023-03-31T07:11:16.744Z,2.10
2023-03-31T07:16:16.894Z,1.67
2023-03-31T07:21:15.467Z,2.30
2023-03-31T07:26:14.063Z,2.00
2023-03-31T07:31:15.143Z,1.67
2023-03-31T07:36:14.396Z,1.60
2023-03-31T07:41:14.384Z,1.33
2023-03-31T07:46:19.502Z,1.40
2023-03-31T07:51:20.187Z,1.73
2023-03-31T07:56:18.779Z,1.60
2023-03-31T08:01:19.746Z,1.60
2023-03-31T08:06:20.469Z,1.60
2023-03-31T08:11:21.565Z,2.47
2023-03-31T08:16:21.466Z,2.30
2023-03-31T08:21:22.288Z,2.03
2023-03-31T08:26:24.358Z,2.57
2023-03-31T08:31:27.499Z,2.00
2023-03-31T08:36:27.659Z,1.90
2023-03-31T08:41:38.647Z,2.20
2023-03-31T08:46:40.082Z,1.60
2023-03-31T08:51:42.819Z,1.70
2023-03-31T08:56:44.128Z,1.67
2023-03-31T09:08:40.675Z,1.23
2023-03-31T09:14:14.411Z,1.03
2023-03-31T09:19:18.363Z,1.03
2023-03-31T09:24:22.249Z,0.93
2023-03-31T09:29:27.517Z,1.13
2023-03-31T09:34:27.542Z,1.23
2023-03-31T09:39:27.978Z,1.10
2023-03-31T09:44:29.696Z,1.00
2023-03-31T09:49:33.100Z,1.60
2023-03-31T09:54:38.322Z,1.47
2023-03-31T09:59:37.573Z,1.50
2023-03-31T10:04:36.971Z,1.37
2023-03-31T10:09:40.059Z,1.20
2023-03-31T10:14:42.948Z,1.07
2023-03-31T10:19:49.723Z,2.10
2023-03-31T10:24:50.887Z,1.30
2023-03-31T10:29:53.517Z,1.60
2023-03-31T10:34:52.364Z,1.73
2023-03-31T10:39:58.940Z,2.10
2023-03-31T10:45:23.182Z,1.90
2023-03-31T10:50:30.459Z,1.70
2023-03-31T10:55:36.744Z,1.13
2023-03-31T11:00:49.393Z,1.47
2023-03-31T11:05:53.173Z,1.67
2023-03-31T11:11:03.296Z,1.20
2023-03-31T11:16:13.397Z,1.20
2023-03-31T11:21:23.487Z,1.20
2023-03-31T11:26:35.145Z,1.20
2023-03-31T11:31:50.291Z,1.57
2023-03-31T11:37:17.644Z,1.40
2023-03-31T11:42:21.864Z,1.17
2023-03-31T11:47:23.673Z,1.60
2023-03-31T11:52:30.866Z,1.70
2023-03-31T11:57:34.530Z,1.10
2023-03-31T12:02:41.823Z,2.10
2023-03-31T12:07:47.315Z,2.17
2023-03-31T12:12:52.125Z,1.33
2023-03-31T12:17:58.911Z,2.07
2023-03-31T12:22:59.523Z,1.40
2023-03-31T12:28:00.329Z,1.80
2023-03-31T12:33:03.564Z,1.27
2023-03-31T12:38:17.054Z,1.53
2023-03-31T12:43:48.312Z,1.30
2023-03-31T12:49:13.806Z,1.80
2023-03-31T12:54:27.582Z,1.57
2023-03-31T12:59:33.870Z,1.40
2023-03-31T13:04:33.511Z,1.20
2023-03-31T13:09:46.950Z,1.50
2023-03-31T13:14:48.197Z,1.30
2023-03-31T13:19:47.842Z,1.57
2023-03-31T13:24:46.904Z,1.43
2023-03-31T13:29:45.913Z,1.50
2023-03-31T13:34:47.807Z,1.77
2023-03-31T13:40:16.646Z,1.10
2023-03-31T13:45:35.720Z,1.03
2023-03-31T13:50:47.355Z,0.90
2023-03-31T13:56:01.210Z,0.80
2023-03-31T14:01:18.055Z,1.20
2023-03-31T14:06:27.103Z,1.33
2023-03-31T14:11:28.449Z,0.93
2023-03-31T14:16:27.679Z,0.90
2023-03-31T14:21:35.167Z,0.80
2023-03-31T14:26:56.262Z,0.77
2023-03-31T14:32:01.087Z,2.30
2023-03-31T14:37:02.344Z,1.10
2023-03-31T14:42:07.482Z,1.17
2023-03-31T14:47:08.000Z,1.27
2023-03-31T14:52:17.158Z,1.00
2023-03-31T14:57:20.720Z,1.23
2023-03-31T15:02:27.377Z,1.20
2023-03-31T15:07:28.255Z,0.83
2023-03-31T15:12:31.167Z,1.23
2023-03-31T15:24:18.931Z,1.20
2023-03-31T15:29:23.638Z,1.30
2023-03-31T15:34:28.101Z,1.20
2023-03-31T15:39:28.557Z,1.20
2023-03-31T15:44:39.246Z,1.80
2023-03-31T15:49:37.834Z,1.40
2023-03-31T15:54:39.432Z,1.03
2023-03-31T15:59:55.534Z,1.00
2023-03-31T16:04:59.167Z,1.27
2023-03-31T16:10:02.354Z,1.20
2023-03-31T16:15:06.221Z,1.20
2023-03-31T16:20:09.281Z,1.23
2023-03-31T16:25:12.907Z,1.30
2023-03-31T16:30:16.464Z,1.00
2023-03-31T16:35:15.085Z,0.97
2023-03-31T16:40:13.392Z,1.30
2023-03-31T16:45:15.042Z,1.73
2023-03-31T16:50:15.480Z,1.13
2023-03-31T16:55:13.680Z,1.07
2023-03-31T17:00:15.197Z,1.73
2023-03-31T17:05:14.109Z,1.90
2023-03-31T17:10:13.488Z,1.77
2023-03-31T17:15:14.316Z,2.13
2023-03-31T17:20:13.427Z,2.30
2023-03-31T17:25:12.182Z,1.63
2023-03-31T17:30:11.010Z,1.70
2023-03-31T17:35:11.995Z,1.93
2023-03-31T17:40:11.126Z,1.73
2023-03-31T17:45:11.649Z,1.70
2023-03-31T17:50:13.006Z,2.10
2023-03-31T17:55:11.876Z,1.87
2023-03-31T18:00:12.113Z,1.93
2023-03-31T18:05:12.322Z,2.00
2023-03-31T18:10:12.349Z,2.17
2023-03-31T18:15:12.001Z,1.60
2023-03-31T18:20:13.254Z,3.27
2023-03-31T18:25:12.089Z,1.30
2023-03-31T18:30:12.269Z,4.57
2023-03-31T18:35:13.198Z,2.67
2023-03-31T18:40:12.571Z,3.20
2023-03-31T18:45:11.457Z,2.50
2023-03-31T18:50:13.588Z,3.53
2023-03-31T18:55:12.077Z,2.60
2023-03-31T19:00:11.874Z,2.70
2023-03-31T19:05:12.211Z,4.70
2023-03-31T19:10:11.782Z,3.90
2023-03-31T19:15:11.489Z,3.17
2023-03-31T19:20:16.733Z,2.67
2023-03-31T19:25:15.611Z,2.80
2023-03-31T19:30:19.007Z,2.03
2023-03-31T19:35:19.886Z,2.13
2023-03-31T19:40:18.184Z,3.00
2023-03-31T19:45:16.971Z,1.60
2023-03-31T19:50:15.972Z,1.83
2023-03-31T19:55:16.029Z,1.60
2023-03-31T20:00:18.527Z,1.70
2023-03-31T20:05:17.243Z,2.33
2023-03-31T20:10:17.208Z,2.10
2023-03-31T20:15:15.840Z,2.67
2023-03-31T20:20:14.405Z,1.73
2023-03-31T20:25:12.872Z,2.13
2023-03-31T20:30:13.277Z,1.97
2023-03-31T20:35:11.862Z,1.80
2023-03-31T20:40:12.102Z,1.77
2023-03-31T20:45:13.115Z,2.80
2023-03-31T20:50:11.915Z,2.30
2023-03-31T20:55:11.022Z,2.80
2023-03-31T21:00:11.592Z,1.90
2023-03-31T21:05:12.078Z,3.87
2023-03-31T21:10:10.999Z,2.83
2023-03-31T21:15:10.992Z,2.40
2023-03-31T21:20:12.043Z,4.00
2023-03-31T21:25:11.133Z,2.63
2023-03-31T21:30:10.839Z,2.50
2023-03-31T21:35:11.452Z,3.73
2023-03-31T21:40:11.352Z,3.60
2023-03-31T21:45:10.488Z,2.80
2023-03-31T21:50:11.341Z,1.77
2023-03-31T21:55:10.524Z,2.50
2023-03-31T22:00:12.619Z,2.97
2023-03-31T22:05:13.003Z,2.43
2023-03-31T22:10:12.116Z,3.00
2023-03-31T22:15:11.559Z,2.00
2023-03-31T22:20:13.075Z,2.57
2023-03-31T22:25:11.707Z,2.70
2023-03-31T22:30:11.476Z,2.93
2023-03-31T22:35:11.978Z,3.93
2023-03-31T22:40:11.592Z,1.93
2023-03-31T22:45:11.080Z,2.43
2023-03-31T22:50:12.273Z,2.23
2023-03-31T22:55:11.013Z,2.47
2023-03-31T23:00:10.587Z,2.23
2023-03-31T23:05:09.989Z,1.90
2023-03-31T23:10:11.090Z,2.07
2023-03-31T23:15:10.113Z,2.57
2023-03-31T23:20:09.443Z,3.20
2023-03-31T23:25:09.841Z,2.33
2023-03-31T23:30:09.332Z,2.33
2023-03-31T23:42:03.294Z,1.90
2023-03-31T23:47:02.032Z,2.50
2023-03-31T23:52:00.672Z,2.17
2023-03-31T23:56:59.246Z,2.20
